createdAt,value
2019-02-09T00:04:48.820Z,93.00
2019-02-09T00:09:55.835Z,89.40
2019-02-09T00:15:05.692Z,85.20
2019-02-09T00:20:11.587Z,88.67
2019-02-09T00:25:19.276Z,93.60
2019-02-09T00:30:27.957Z,93.50
2019-02-09T00:35:32.419Z,83.50
2019-02-09T00:40:36.843Z,87.00
2019-02-09T00:45:43.996Z,89.80
2019-02-09T00:50:51.695Z,83.00
2019-02-09T00:55:55.479Z,87.00
2019-02-09T01:01:02.695Z,89.50
2019-02-09T01:06:07.002Z,87.00
2019-02-09T01:11:18.787Z,90.20
2019-02-09T01:16:22.361Z,96.20
2019-02-09T01:21:25.826Z,100.00
2019-02-09T01:26:28.744Z,97.00
2019-02-09T01:31:37.487Z,106.17
2019-02-09T01:36:42.503Z,101.33
2019-02-09T01:41:50.558Z,104.45
2019-02-09T01:47:01.746Z,109.86
2019-02-09T01:52:07.355Z,107.86
2019-02-09T01:57:16.383Z,107.67
2019-02-09T02:02:20.890Z,109.33
2019-02-09T02:07:30.619Z,111.31
2019-02-09T02:12:35.447Z,109.20
2019-02-09T02:17:45.975Z,109.58
2019-02-09T02:22:49.991Z,116.20
2019-02-09T02:27:58.757Z,119.00
2019-02-09T02:33:03.960Z,123.17
2019-02-09T02:38:13.727Z,122.25
2019-02-09T02:43:22.480Z,130.50
2019-02-09T02:48:25.641Z,133.00
2019-02-09T02:53:35.323Z,124.58
2019-02-09T02:58:38.942Z,123.20
2019-02-09T03:03:47.855Z,127.08
2019-02-09T03:08:56.716Z,121.83
2019-02-09T03:14:01.057Z,131.50
2019-02-09T03:19:09.852Z,129.17
2019-02-09T03:24:22.138Z,121.36
2019-02-09T03:29:31.856Z,122.33
2019-02-09T03:34:38.451Z,128.38
2019-02-09T03:39:41.602Z,126.75
2019-02-09T03:44:46.713Z,120.50
2019-02-09T03:49:53.036Z,134.37
2019-02-09T03:54:57.670Z,126.17
2019-02-09T04:00:01.955Z,127.60
2019-02-09T04:05:08.697Z,129.00
2019-02-09T04:10:14.166Z,129.00
2019-02-09T04:15:20.394Z,132.50
2019-02-09T04:20:25.143Z,128.00
2019-02-09T04:25:29.483Z,123.40
2019-02-09T04:30:34.605Z,126.50
2019-02-09T04:35:46.687Z,126.08
2019-02-09T04:40:57.455Z,130.00
2019-02-09T04:46:03.463Z,135.00
2019-02-09T04:51:07.150Z,131.00
2019-02-09T04:56:12.822Z,130.86
2019-02-09T05:01:25.782Z,130.44
2019-02-09T05:06:50.639Z,129.76
2019-02-09T05:12:11.913Z,134.37
2019-02-09T05:17:16.046Z,132.80
2019-02-09T05:22:19.811Z,125.67
2019-02-09T05:27:24.243Z,129.40
2019-02-09T05:32:29.102Z,129.83
2019-02-09T05:37:40.502Z,131.71
2019-02-09T05:42:44.402Z,140.00
2019-02-09T05:47:53.062Z,132.25
2019-02-09T05:53:05.719Z,134.37
2019-02-09T05:58:09.684Z,141.75
2019-02-09T06:03:13.482Z,133.40
2019-02-09T06:08:17.894Z,129.50
2019-02-09T06:13:21.384Z,134.40
2019-02-09T06:18:25.544Z,133.00
2019-02-09T06:23:29.801Z,127.60
2019-02-09T06:28:39.624Z,135.67
2019-02-09T06:33:43.586Z,128.80
2019-02-09T06:38:49.509Z,126.83
2019-02-09T06:43:58.501Z,114.58
2019-02-09T06:49:02.442Z,115.60
2019-02-09T06:54:11.522Z,102.09
2019-02-09T06:59:20.616Z,59.38
2019-02-09T07:04:27.766Z,49.50
2019-02-09T07:09:31.578Z,81.00
2019-02-09T07:14:35.449Z,98.80
2019-02-09T07:19:39.495Z,105.00
2019-02-09T07:24:48.625Z,109.58
2019-02-09T07:29:52.370Z,144.40
2019-02-09T07:34:55.971Z,129.00
2019-02-09T07:40:04.787Z,94.10
2019-02-09T07:45:13.896Z,48.25
2019-02-09T07:50:19.280Z,33.50
2019-02-09T07:55:23.276Z,24.75
2019-02-09T08:00:29.698Z,25.00
2019-02-09T08:05:33.440Z,20.67
2019-02-09T08:10:39.792Z,23.00
2019-02-09T08:15:47.899Z,23.57
2019-02-09T08:20:52.632Z,22.50
2019-02-09T08:26:00.198Z,21.00
2019-02-09T08:31:04.449Z,20.00
2019-02-09T08:36:08.354Z,23.75
2019-02-09T08:41:11.538Z,21.50
2019-02-09T08:46:15.471Z,25.00
2019-02-09T08:51:23.495Z,29.87
2019-02-09T08:56:32.450Z,23.50
2019-02-09T09:01:37.167Z,21.50
2019-02-09T09:06:40.226Z,21.00
2019-02-09T09:11:48.499Z,23.75
2019-02-09T09:16:52.458Z,22.00
2019-02-09T09:21:58.061Z,22.25
2019-02-09T09:27:02.806Z,24.00
2019-02-09T09:32:10.072Z,21.86
2019-02-09T09:37:15.596Z,24.50
2019-02-09T09:42:22.570Z,23.00
2019-02-09T09:47:31.518Z,29.37
2019-02-09T09:52:36.211Z,23.50
2019-02-09T09:57:44.463Z,30.00
2019-02-09T10:02:49.556Z,24.50
2019-02-09T10:07:53.635Z,24.50
2019-02-09T10:12:58.018Z,25.33
2019-02-09T10:18:04.183Z,24.87
2019-02-09T10:23:07.392Z,19.00
2019-02-09T10:28:11.567Z,26.00
2019-02-09T10:33:20.035Z,37.00
2019-02-09T10:38:28.044Z,37.25
2019-02-09T10:43:36.267Z,36.38
2019-02-09T10:48:42.477Z,36.13
2019-02-09T10:53:47.855Z,33.13
2019-02-09T10:58:54.010Z,31.37
2019-02-09T11:03:57.519Z,37.00
2019-02-09T11:09:05.230Z,25.88
2019-02-09T11:14:13.816Z,26.25
2019-02-09T11:19:21.859Z,24.25
2019-02-09T11:24:27.939Z,20.43
2019-02-09T11:29:32.355Z,24.00
2019-02-09T11:34:40.778Z,29.87
2019-02-09T11:39:46.818Z,26.62
2019-02-09T11:44:50.364Z,25.25
2019-02-09T11:49:56.387Z,20.75
2019-02-09T11:55:00.595Z,22.33
2019-02-09T12:00:09.206Z,21.75
2019-02-09T12:05:16.050Z,32.25
2019-02-09T12:10:21.811Z,28.00
2019-02-09T12:15:36.318Z,31.00
2019-02-09T12:20:40.084Z,26.00
2019-02-09T12:25:47.846Z,17.37
2019-02-09T12:30:52.679Z,20.00
2019-02-09T12:35:55.878Z,29.00
2019-02-09T12:41:03.582Z,21.37
2019-02-09T12:46:08.132Z,18.71
2019-02-09T12:51:15.225Z,15.63
2019-02-09T12:56:21.636Z,15.75
2019-02-09T13:01:25.150Z,20.00
2019-02-09T13:06:28.364Z,14.00
2019-02-09T13:11:34.273Z,13.86
2019-02-09T13:16:41.315Z,19.00
2019-02-09T13:21:50.730Z,21.64
2019-02-09T13:26:55.986Z,17.43
2019-02-09T13:32:00.082Z,17.50
2019-02-09T13:37:06.415Z,17.75
2019-02-09T13:42:09.940Z,20.00
2019-02-09T13:47:12.854Z,12.00
2019-02-09T13:52:16.427Z,18.00
2019-02-09T13:57:22.505Z,20.88
2019-02-09T14:02:30.367Z,23.75
2019-02-09T14:07:33.822Z,16.00
2019-02-09T14:12:40.148Z,15.14
2019-02-09T14:17:43.629Z,20.25
2019-02-09T14:22:49.216Z,16.25
2019-02-09T14:27:53.336Z,17.33
2019-02-09T14:33:00.143Z,16.62
2019-02-09T14:38:06.977Z,20.00
2019-02-09T14:43:13.826Z,26.75
2019-02-09T14:48:21.978Z,19.00
2019-02-09T14:53:26.139Z,21.00
2019-02-09T14:58:29.344Z,18.00
2019-02-09T15:03:37.745Z,23.00
2019-02-09T15:08:42.458Z,21.75
2019-02-09T15:13:48.061Z,20.00
2019-02-09T15:18:53.725Z,18.14
2019-02-09T15:24:01.892Z,22.75
2019-02-09T15:29:09.371Z,17.71
2019-02-09T15:34:15.916Z,17.75
2019-02-09T15:39:20.750Z,15.00
2019-02-09T15:44:26.434Z,21.00
2019-02-09T15:49:34.645Z,16.25
2019-02-09T15:54:40.440Z,19.29
2019-02-09T15:59:47.002Z,26.62
2019-02-09T16:04:52.444Z,17.71
2019-02-09T16:09:56.554Z,22.00
2019-02-09T16:15:11.463Z,25.37
2019-02-09T16:20:16.151Z,18.67
2019-02-09T16:25:19.741Z,21.00
2019-02-09T16:30:26.871Z,24.00
2019-02-09T16:35:35.382Z,25.25
2019-02-09T16:40:40.078Z,25.00
2019-02-09T16:45:48.539Z,28.38
2019-02-09T16:50:55.082Z,34.88
2019-02-09T16:56:04.788Z,31.22
2019-02-09T17:01:12.038Z,34.75
2019-02-09T17:06:17.066Z,36.00
2019-02-09T17:11:26.354Z,31.67
2019-02-09T17:16:35.576Z,30.00
2019-02-09T17:21:44.641Z,30.62
2019-02-09T17:26:53.928Z,31.00
2019-02-09T17:32:02.947Z,30.25
2019-02-09T17:37:06.923Z,28.33
2019-02-09T17:42:15.345Z,29.63
2019-02-09T17:47:24.338Z,28.62
2019-02-09T17:52:31.846Z,30.00
2019-02-09T17:57:36.070Z,29.50
2019-02-09T18:02:44.422Z,26.12
2019-02-09T18:07:52.718Z,36.00
2019-02-09T18:13:02.028Z,34.88
2019-02-09T18:18:11.154Z,30.00
2019-02-09T18:23:15.314Z,28.50
2019-02-09T18:28:21.382Z,26.25
2019-02-09T18:33:26.282Z,35.00
2019-02-09T18:38:30.263Z,26.25
2019-02-09T18:43:36.720Z,24.44
2019-02-09T18:48:44.166Z,27.62
2019-02-09T18:53:51.503Z,29.75
2019-02-09T18:59:00.509Z,30.25
2019-02-09T19:04:07.782Z,31.50
2019-02-09T19:09:15.150Z,29.37
2019-02-09T19:14:19.539Z,29.67
2019-02-09T19:19:25.876Z,30.44
2019-02-09T19:24:34.810Z,29.25
2019-02-09T19:29:39.862Z,27.00
2019-02-09T19:34:50.416Z,27.50
2019-02-09T19:39:57.734Z,33.13
2019-02-09T19:45:08.456Z,31.12
2019-02-09T19:50:17.007Z,28.87
2019-02-09T19:55:27.768Z,25.22
2019-02-09T20:00:36.001Z,28.87
2019-02-09T20:05:40.759Z,28.29
2019-02-09T20:10:49.236Z,30.00
2019-02-09T20:15:53.586Z,29.33
2019-02-09T20:21:02.084Z,30.00
2019-02-09T20:26:06.334Z,27.00
2019-02-09T20:31:14.760Z,28.75
2019-02-09T20:36:18.203Z,28.75
2019-02-09T20:41:21.734Z,26.00
2019-02-09T20:46:30.183Z,29.12
2019-02-09T20:51:38.007Z,26.62
2019-02-09T20:56:47.353Z,24.75
2019-02-09T21:01:52.447Z,29.75
2019-02-09T21:06:59.884Z,33.22
2019-02-09T21:12:07.942Z,32.00
2019-02-09T21:17:15.230Z,27.25
2019-02-09T21:22:19.982Z,26.25
2019-02-09T21:27:23.937Z,24.75
2019-02-09T21:32:28.031Z,26.75
2019-02-09T21:37:36.446Z,24.12
2019-02-09T21:42:41.107Z,24.00
2019-02-09T21:47:44.199Z,21.50
2019-02-09T21:52:47.741Z,26.33
2019-02-09T21:57:52.026Z,26.25
2019-02-09T22:02:55.947Z,25.00
2019-02-09T22:08:00.787Z,26.00
2019-02-09T22:13:05.337Z,28.00
2019-02-09T22:18:09.375Z,29.50
2019-02-09T22:23:17.810Z,31.62
2019-02-09T22:28:24.430Z,31.75
2019-02-09T22:33:30.887Z,32.88
2019-02-09T22:38:38.336Z,23.29
2019-02-09T22:43:42.943Z,25.29
2019-02-09T22:48:46.398Z,22.33
2019-02-09T22:53:49.802Z,25.00
2019-02-09T22:58:54.937Z,20.86
2019-02-09T23:04:04.486Z,25.50
2019-02-09T23:09:13.873Z,22.00
2019-02-09T23:14:18.524Z,24.00
2019-02-09T23:19:27.320Z,22.75
2019-02-09T23:24:33.482Z,23.00
2019-02-09T23:29:37.827Z,23.25
2019-02-09T23:34:44.932Z,25.22
2019-02-09T23:39:52.837Z,23.00
2019-02-09T23:44:56.686Z,24.33
2019-02-09T23:50:04.648Z,22.13
2019-02-09T23:55:13.379Z,22.13
